Time;durP1;ratioP1;P1;durP2;ratioP2;P2;SDS_P1;SDS_P2;PMS_P1;PMS_P2;Temp;Humidity;BMP_temperature;BMP_pressure;BME280_temperature;BME280_humidity;BME280_pressure;Samples;Min_cycle;Max_cycle;Signal;HPM_P1;HPM_P2
2021/01/07 00:00:21;;;;;;;10.36;7.09;;;;;;;1.89;87.03;99170.13;2308212;67;26679;-73
2021/01/07 00:03:23;;;;;;;13.84;7.85;;;;;;;1.87;86.98;99172.66;2308960;69;20313;-72
2021/01/07 00:06:24;;;;;;;11.93;8.86;;;;;;;1.87;87.00;99175.22;2308869;69;20398;-72
2021/01/07 00:09:26;;;;;;;12.81;8.85;;;;;;;1.86;87.07;99176.06;2308656;69;20330;-72
2021/01/07 00:12:27;;;;;;;13.36;8.30;;;;;;;1.87;87.02;99170.09;2307181;69;20851;-72
2021/01/07 00:15:29;;;;;;;13.31;8.88;;;;;;;1.87;86.98;99176.91;2306958;66;20345;-72
2021/01/07 00:18:31;;;;;;;12.43;8.94;;;;;;;1.84;87.01;99172.59;2308144;69;20324;-72
2021/01/07 00:21:33;;;;;;;14.54;8.79;;;;;;;1.81;86.96;99175.94;2308856;69;20301;-72
2021/01/07 00:24:35;;;;;;;14.68;9.55;;;;;;;1.80;86.92;99176.75;2308284;69;20344;-72
2021/01/07 00:27:37;;;;;;;12.70;9.06;;;;;;;1.76;86.95;99169.81;2306980;69;20301;-72
2021/01/07 00:30:38;;;;;;;12.80;8.94;;;;;;;1.77;86.96;99174.09;2306747;66;20881;-72
2021/01/07 00:33:40;;;;;;;16.29;9.44;;;;;;;1.75;86.98;99167.22;2305370;69;20335;-72
2021/01/07 00:36:42;;;;;;;14.80;9.50;;;;;;;1.73;86.91;99169.72;2308795;69;20355;-72
2021/01/07 00:39:43;;;;;;;13.26;8.85;;;;;;;1.71;86.78;99173.06;2308123;69;20326;-72
2021/01/07 00:42:45;;;;;;;13.91;8.96;;;;;;;1.68;86.73;99165.31;2311969;69;21105;-72
2021/01/07 00:45:47;;;;;;;13.18;8.68;;;;;;;1.68;86.92;99160.19;2313685;67;22274;-72
2021/01/07 00:48:48;;;;;;;13.99;9.15;;;;;;;1.67;86.96;99167.00;2314566;68;20326;-72
2021/01/07 00:51:50;;;;;;;14.48;9.20;;;;;;;1.69;86.72;99155.13;2313994;69;20288;-72
2021/01/07 00:54:52;;;;;;;14.77;9.14;;;;;;;1.64;86.72;99159.25;2314312;69;20322;-72
2021/01/07 00:57:53;;;;;;;14.52;9.51;;;;;;;1.67;86.94;99159.34;2314288;69;20310;-72
2021/01/07 01:00:55;;;;;;;14.61;9.61;;;;;;;1.67;86.91;99167.00;2313451;66;20845;-72
2021/01/07 01:03:57;;;;;;;13.63;9.24;;;;;;;1.62;86.78;99160.91;2314401;69;20341;-72
2021/01/07 01:06:59;;;;;;;15.50;10.09;;;;;;;1.62;86.84;99167.72;2315019;69;20325;-72
2021/01/07 01:10:01;;;;;;;14.11;9.11;;;;;;;1.63;86.83;99167.75;2314822;68;21205;-72
2021/01/07 01:13:03;;;;;;;14.48;9.51;;;;;;;1.60;86.79;99175.34;2313689;69;20276;-72
2021/01/07 01:16:06;;;;;;;14.55;9.15;;;;;;;1.58;86.89;99165.88;2313473;66;20338;-72
2021/01/07 01:19:07;;;;;;;13.54;9.49;;;;;;;1.59;86.93;99175.28;2314521;69;20296;-72
2021/01/07 01:22:10;;;;;;;14.64;9.86;;;;;;;1.58;86.82;99168.44;2314232;69;20293;-72
2021/01/07 01:25:13;;;;;;;11.51;8.16;;;;;;;1.57;86.82;99169.25;2315027;69;20719;-72
2021/01/07 01:28:14;;;;;;;14.56;9.21;;;;;;;1.52;86.87;99167.47;2314376;69;20317;-72
2021/01/07 01:31:16;;;;;;;15.20;9.66;;;;;;;1.51;86.95;99162.31;2312661;66;24636;-72
2021/01/07 01:34:22;;;;;;;16.52;9.80;;;;;;;1.52;87.08;99162.34;2312799;69;20152;-72
2021/01/07 01:37:24;;;;;;;15.67;9.48;;;;;;;1.55;86.98;99165.81;2314782;69;20302;-72
2021/01/07 01:40:25;;;;;;;15.69;9.91;;;;;;;1.50;86.78;99166.56;2313200;69;20189;-72
2021/01/07 01:43:27;;;;;;;15.51;10.20;;;;;;;1.50;86.73;99166.56;2313682;69;20304;-72
2021/01/07 01:46:29;;;;;;;14.56;9.52;;;;;;;1.49;86.64;99167.38;2314645;66;28347;-71
2021/01/07 01:49:30;;;;;;;13.69;9.30;;;;;;;1.50;86.60;99165.69;2315361;69;20304;-72
2021/01/07 01:52:35;;;;;;;15.48;9.95;;;;;;;1.49;86.60;99166.50;2314391;69;20323;-72
2021/01/07 01:55:36;;;;;;;15.10;9.64;;;;;;;1.45;86.49;99160.44;2314192;69;20756;-72
2021/01/07 01:58:40;;;;;;;16.27;10.10;;;;;;;1.43;86.58;99167.19;2315168;69;20749;-72
2021/01/07 02:01:42;;;;;;;15.35;9.54;;;;;;;1.39;86.64;99162.81;2313126;66;20377;-72
2021/01/07 02:04:44;;;;;;;16.24;10.16;;;;;;;1.39;86.76;99157.69;2314543;69;20826;-72
2021/01/07 02:07:49;;;;;;;14.08;8.20;;;;;;;1.41;86.98;99158.59;2315433;69;20353;-72
2021/01/07 02:10:52;;;;;;;14.59;9.32;;;;;;;1.37;86.89;99166.16;2314842;69;20183;-72
2021/01/07 02:13:54;;;;;;;15.24;9.57;;;;;;;1.34;87.17;99163.53;2313862;68;21321;-72
2021/01/07 02:16:55;;;;;;;14.24;8.79;;;;;;;1.30;87.10;99169.38;2313607;66;22016;-72
2021/01/07 02:19:58;;;;;;;16.11;9.85;;;;;;;1.28;87.14;99160.78;2315947;69;20982;-72
2021/01/07 02:23:00;;;;;;;16.08;9.48;;;;;;;1.23;87.11;99167.44;2316391;69;20597;-72
2021/01/07 02:26:02;;;;;;;15.69;9.49;;;;;;;1.18;87.40;99157.97;2314848;68;20325;-72
2021/01/07 02:29:04;;;;;;;19.39;10.36;;;;;;;1.20;87.63;99156.31;2315506;69;20292;-72
2021/01/07 02:32:06;;;;;;;16.85;9.85;;;;;;;1.24;87.62;99157.25;2314237;66;50840;-72
2021/01/07 02:35:09;;;;;;;15.11;8.94;;;;;;;1.27;87.55;99157.38;2314530;69;20297;-72
2021/01/07 02:38:10;;;;;;;12.76;8.61;;;;;;;1.28;87.49;99159.09;2315015;69;20225;-72
2021/01/07 02:41:12;;;;;;;14.60;8.73;;;;;;;1.26;87.53;99157.31;2315784;69;20437;-72
2021/01/07 02:44:14;;;;;;;13.31;8.85;;;;;;;1.26;87.54;99159.84;2315365;69;20315;-72
2021/01/07 02:47:15;;;;;;;17.39;10.61;;;;;;;1.22;87.55;99156.34;2315184;66;24679;-71
2021/01/07 02:50:17;;;;;;;15.16;9.63;;;;;;;1.20;87.63;99156.31;2315987;69;20292;-72
2021/01/07 02:53:19;;;;;;;13.88;9.11;;;;;;;1.21;87.63;99152.94;2314779;69;20818;-72
2021/01/07 02:56:20;;;;;;;14.17;8.84;;;;;;;1.20;87.61;99160.56;2315194;69;20291;-72
2021/01/07 02:59:22;;;;;;;14.40;9.54;;;;;;;1.20;87.62;99158.88;2316813;69;20601;-72
2021/01/07 03:02:23;;;;;;;13.25;8.36;;;;;;;1.18;87.57;99157.09;2315168;66;21050;-72
2021/01/07 03:05:25;;;;;;;15.96;9.77;;;;;;;1.14;87.58;99158.69;2316139;69;20316;-72
2021/01/07 03:08:26;;;;;;;14.99;9.25;;;;;;;1.13;87.51;99161.22;2316700;69;21013;-72
2021/01/07 03:11:28;;;;;;;16.29;9.49;;;;;;;1.13;87.43;99161.22;2316624;69;20906;-72
2021/01/07 03:14:29;;;;;;;16.44;9.94;;;;;;;1.13;87.37;99164.63;2315729;69;20368;-72
2021/01/07 03:17:32;;;;;;;15.43;9.31;;;;;;;1.08;87.19;99158.53;2316597;66;20876;-72
2021/01/07 03:20:33;;;;;;;16.81;9.56;;;;;;;1.07;87.23;99163.56;2317079;69;20169;-72
2021/01/07 03:23:35;;;;;;;14.06;9.32;;;;;;;1.07;87.15;99155.91;2317127;69;21198;-72
2021/01/07 03:26:36;;;;;;;14.66;9.79;;;;;;;1.05;87.24;99157.56;2316117;69;20697;-72
2021/01/07 03:29:38;;;;;;;14.23;9.79;;;;;;;1.03;87.22;99156.63;2317062;69;21018;-72
2021/01/07 03:32:39;;;;;;;16.69;10.06;;;;;;;1.02;87.34;99165.13;2315902;66;21198;-72
2021/01/07 03:35:41;;;;;;;15.39;10.43;;;;;;;0.96;87.17;99162.41;2316393;69;20299;-72
2021/01/07 03:38:43;;;;;;;18.74;10.80;;;;;;;0.90;87.24;99161.41;2316887;69;20207;-72
2021/01/07 03:41:44;;;;;;;15.12;9.50;;;;;;;0.90;87.29;99163.97;2316850;69;20171;-72
2021/01/07 03:44:47;;;;;;;14.26;8.98;;;;;;;0.91;87.24;99157.16;2316571;69;20176;-72
2021/01/07 03:47:48;;;;;;;15.06;9.27;;;;;;;0.87;87.30;99156.19;2315710;66;21093;-72
2021/01/07 03:50:50;;;;;;;16.10;9.29;;;;;;;0.82;87.26;99161.97;2316293;69;20296;-72
2021/01/07 03:53:51;;;;;;;16.24;10.04;;;;;;;0.79;87.50;99155.09;2316036;69;20175;-72
2021/01/07 03:56:53;;;;;;;15.46;9.38;;;;;;;0.77;87.51;99156.75;2318524;69;20288;-72
2021/01/07 03:59:55;;;;;;;18.99;9.94;;;;;;;0.76;87.48;99152.44;2318465;69;20135;-72
2021/01/07 04:02:56;;;;;;;16.87;10.21;;;;;;;0.77;87.47;99151.63;2316202;66;21388;-72
2021/01/07 04:05:58;;;;;;;15.48;9.99;;;;;;;0.77;87.37;99153.31;2317641;69;20164;-72
2021/01/07 04:09:04;;;;;;;15.38;10.07;;;;;;;0.74;87.24;99159.22;2316698;69;20324;-72
2021/01/07 04:12:06;;;;;;;14.93;9.48;;;;;;;0.72;87.18;99165.97;2316563;69;20155;-72
2021/01/07 04:15:08;;;;;;;15.47;8.88;;;;;;;0.70;87.11;99152.25;2315993;69;20147;-72
2021/01/07 04:18:10;;;;;;;14.63;9.10;;;;;;;0.62;86.98;99155.41;2316707;66;20626;-71
2021/01/07 04:21:12;;;;;;;16.41;9.87;;;;;;;0.55;86.90;99151.78;2314351;69;20185;-72
2021/01/07 04:24:14;;;;;;;13.56;8.32;;;;;;;0.48;86.80;99152.41;2315117;69;20620;-72
2021/01/07 04:27:16;;;;;;;15.36;9.48;;;;;;;0.35;86.48;99151.13;2315000;69;20885;-72
2021/01/07 04:30:18;;;;;;;14.38;8.14;;;;;;;0.30;86.65;99157.78;2317755;66;20194;-71
2021/01/07 04:33:20;;;;;;;13.68;8.80;;;;;;;0.23;86.56;99154.19;2314420;68;20176;-71
2021/01/07 04:36:22;;;;;;;15.37;8.67;;;;;;;0.19;86.73;99149.81;2314538;69;20617;-72
2021/01/07 04:39:23;;;;;;;14.38;8.80;;;;;;;0.17;86.81;99151.41;2314991;69;20634;-72
2021/01/07 04:42:25;;;;;;;16.18;9.58;;;;;;;0.13;86.85;99153.81;2314349;69;20189;-71
2021/01/07 04:45:27;;;;;;;14.08;8.82;;;;;;;0.11;87.18;99158.00;2314330;66;21238;-72
2021/01/07 04:48:28;;;;;;;14.21;8.73;;;;;;;0.09;87.24;99157.97;2315347;69;20471;-72
2021/01/07 04:51:30;;;;;;;17.74;9.88;;;;;;;0.09;87.36;99159.66;2315582;69;20670;-71
2021/01/07 04:54:32;;;;;;;15.34;8.76;;;;;;;0.09;87.39;99154.53;2315312;69;20172;-72
2021/01/07 04:57:34;;;;;;;14.84;9.27;;;;;;;0.05;87.58;99158.69;2314847;69;20544;-72
2021/01/07 05:00:37;;;;;;;14.16;9.17;;;;;;;0.05;87.72;99150.16;2314055;66;22395;-72
2021/01/07 05:03:44;;;;;;;15.32;9.51;;;;;;;0.04;87.67;99156.09;2315561;69;20551;-72
2021/01/07 05:06:47;;;;;;;14.63;8.87;;;;;;;-0.01;87.61;99154.22;2317160;68;20160;-72
2021/01/07 05:10:00;;;;;;;14.93;9.06;;;;;;;-0.04;87.49;99149.03;2315432;69;20147;-72
2021/01/07 05:13:07;;;;;;;14.59;8.31;;;;;;;-0.06;87.46;99144.69;2314724;69;20209;-71
2021/01/07 05:16:20;;;;;;;14.90;8.84;;;;;;;-0.08;87.45;99144.63;2314349;66;56165;-72
2021/01/07 05:19:22;;;;;;;14.26;8.70;;;;;;;-0.13;87.37;99141.06;2315459;69;20604;-72
2021/01/07 05:22:38;;;;;;;13.62;8.13;;;;;;;-0.14;87.45;99147.00;2316962;69;20163;-72
2021/01/07 05:25:42;;;;;;;14.84;8.48;;;;;;;-0.15;87.43;99144.41;2317049;69;20187;-71
2021/01/07 05:28:52;;;;;;;17.70;9.62;;;;;;;-0.20;87.45;99139.09;2317023;69;20171;-71
2021/01/07 05:31:54;;;;;;;15.21;9.10;;;;;;;-0.19;87.58;99133.19;2314736;66;48463;-71
2021/01/07 05:34:56;;;;;;;18.09;9.34;;;;;;;-0.16;87.74;99140.09;2317443;69;20192;-72
2021/01/07 05:38:06;;;;;;;15.86;10.08;;;;;;;-0.15;87.91;99139.28;2316980;69;20175;-72
2021/01/07 05:41:13;;;;;;;16.37;9.72;;;;;;;-0.14;88.11;99141.91;2317598;69;20147;-72
2021/01/07 05:44:14;;;;;;;16.21;9.91;;;;;;;-0.15;88.19;99139.28;2316710;69;20171;-72
2021/01/07 05:47:29;;;;;;;14.61;9.21;;;;;;;-0.15;88.15;99149.50;2316658;66;20255;-72
2021/01/07 05:50:39;;;;;;;15.43;9.02;;;;;;;-0.14;88.21;99143.56;2317101;69;20164;-72
2021/01/07 05:53:45;;;;;;;16.37;9.89;;;;;;;-0.15;88.13;99142.72;2317807;69;20147;-71
2021/01/07 05:56:48;;;;;;;18.22;10.07;;;;;;;-0.14;88.14;99141.03;2316361;69;20167;-71
2021/01/07 05:59:51;;;;;;;17.46;9.48;;;;;;;-0.12;88.24;99135.16;2317096;69;20216;-72
2021/01/07 06:02:57;;;;;;;17.92;10.52;;;;;;;-0.11;88.25;99131.78;2315764;66;23008;-72
2021/01/07 06:06:00;;;;;;;17.22;10.03;;;;;;;-0.10;88.10;99135.19;2316470;68;20257;-72
2021/01/07 06:09:03;;;;;;;14.72;9.63;;;;;;;-0.13;87.83;99135.09;2316652;69;20193;-73
2021/01/07 06:12:06;;;;;;;16.37;8.72;;;;;;;-0.19;87.45;99134.88;2317362;69;20151;-70
2021/01/07 06:15:09;;;;;;;15.51;9.46;;;;;;;-0.28;87.29;99135.44;2313946;69;20180;-72
2021/01/07 06:18:14;;;;;;;14.44;9.52;;;;;;;-0.33;87.13;99132.75;2315855;66;24059;-70
2021/01/07 06:21:17;;;;;;;16.42;9.58;;;;;;;-0.35;86.93;99136.06;2314646;69;20187;-70
2021/01/07 06:24:20;;;;;;;16.32;8.30;;;;;;;-0.40;86.62;99137.56;2316648;68;20140;-71
2021/01/07 06:27:31;;;;;;;13.97;9.32;;;;;;;-0.43;86.43;99137.47;2316361;69;20232;-71
2021/01/07 06:30:34;;;;;;;14.19;8.21;;;;;;;-0.47;86.26;99133.94;2315474;66;26345;-71
2021/01/07 06:33:36;;;;;;;14.67;8.51;;;;;;;-0.57;85.96;99131.00;2316333;69;20169;-70
2021/01/07 06:36:45;;;;;;;15.72;9.12;;;;;;;-0.59;86.18;99140.28;2317144;69;20135;-70
2021/01/07 06:39:48;;;;;;;15.54;8.54;;;;;;;-0.59;86.33;99140.28;2317571;68;20281;-70
2021/01/07 06:42:53;;;;;;;14.97;8.52;;;;;;;-0.61;86.13;99147.88;2321230;68;20186;-71
2021/01/07 06:45:56;;;;;;;15.86;8.49;;;;;;;-0.68;86.22;99146.81;2316863;66;22774;-70
2021/01/07 06:48:58;;;;;;;14.67;9.09;;;;;;;-0.68;86.18;99143.38;2317757;69;20198;-70
2021/01/07 06:52:04;;;;;;;12.79;7.90;;;;;;;-0.75;85.94;99142.28;2317738;69;20213;-70
2021/01/07 06:55:17;;;;;;;14.56;9.01;;;;;;;-0.75;86.04;99141.41;2320852;68;20169;-70
2021/01/07 06:58:19;;;;;;;12.61;8.46;;;;;;;-0.76;86.05;99143.09;2322354;68;20148;-70
2021/01/07 07:01:22;;;;;;;12.56;8.29;;;;;;;-0.74;86.08;99138.91;2316036;66;62343;-70
2021/01/07 07:04:29;;;;;;;17.51;9.10;;;;;;;-0.74;85.96;99144.00;2315905;68;20693;-70
2021/01/07 07:07:37;;;;;;;13.28;8.21;;;;;;;-0.74;85.92;99146.56;2316512;69;20586;-70
2021/01/07 07:10:38;;;;;;;14.13;8.68;;;;;;;-0.73;85.87;99140.66;2316991;69;20152;-70
2021/01/07 07:13:42;;;;;;;16.01;7.56;;;;;;;-0.74;85.82;99145.69;2317029;69;20155;-70
2021/01/07 07:16:46;;;;;;;11.70;7.19;;;;;;;-0.73;85.89;99140.66;2316727;66;21338;-70
2021/01/07 07:19:48;;;;;;;12.96;7.79;;;;;;;-0.72;85.73;99144.97;2316758;69;20152;-70
2021/01/07 07:22:51;;;;;;;11.91;7.44;;;;;;;-0.72;85.75;99142.41;2316377;69;20132;-72
2021/01/07 07:25:55;;;;;;;13.78;8.34;;;;;;;-0.72;85.87;99151.72;2316402;69;20783;-72
2021/01/07 07:28:57;;;;;;;13.27;8.37;;;;;;;-0.70;85.83;99148.44;2317297;69;20362;-70
2021/01/07 07:31:59;;;;;;;14.66;8.38;;;;;;;-0.70;85.70;99148.44;2315734;66;26892;-71
2021/01/07 07:35:19;;;;;;;14.03;8.40;;;;;;;-0.68;85.82;99151.91;2317428;69;20184;-72
2021/01/07 07:38:27;;;;;;;14.12;8.47;;;;;;;-0.69;85.75;99155.28;2316845;69;20168;-71
2021/01/07 07:41:29;;;;;;;14.59;8.34;;;;;;;-0.65;85.81;99161.34;2317906;69;20171;-70
2021/01/07 07:44:31;;;;;;;13.54;8.20;;;;;;;-0.61;85.97;99156.41;2316345;69;20669;-72
2021/01/07 07:47:33;;;;;;;14.87;8.26;;;;;;;-0.56;85.95;99166.75;2316898;66;20805;-71
2021/01/07 07:50:35;;;;;;;16.36;8.87;;;;;;;-0.52;86.12;99163.53;2317738;69;20143;-71
2021/01/07 07:53:38;;;;;;;15.21;9.08;;;;;;;-0.53;86.19;99172.00;2315944;69;20168;-71
2021/01/07 07:56:40;;;;;;;14.10;8.42;;;;;;;-0.53;86.35;99172.00;2317056;68;21128;-71
2021/01/07 07:59:43;;;;;;;12.52;8.16;;;;;;;-0.47;86.67;99169.66;2316538;69;20163;-73
2021/01/07 08:02:49;;;;;;;11.71;7.50;;;;;;;-0.41;86.96;99171.53;2315243;66;20892;-72
2021/01/07 08:05:51;;;;;;;14.92;8.91;;;;;;;-0.38;87.21;99177.59;2317038;68;20144;-71
2021/01/07 08:09:09;;;;;;;14.37;9.23;;;;;;;-0.30;87.35;99177.91;2316980;69;20155;-71
2021/01/07 08:12:16;;;;;;;15.23;8.80;;;;;;;-0.25;87.56;99183.16;2315723;68;20181;-71
2021/01/07 08:15:34;;;;;;;16.08;8.42;;;;;;;-0.20;87.71;99176.50;2315727;66;21189;-71
2021/01/07 08:18:35;;;;;;;15.18;8.98;;;;;;;-0.20;87.67;99187.59;2316605;69;20136;-71
2021/01/07 08:21:42;;;;;;;13.88;8.74;;;;;;;-0.16;87.75;99192.00;2316386;69;20143;-71
2021/01/07 08:24:44;;;;;;;16.01;9.00;;;;;;;-0.19;87.80;99194.41;2316077;69;20186;-72
2021/01/07 08:27:46;;;;;;;14.82;8.44;;;;;;;-0.17;88.17;99197.91;2316749;69;20180;-73
2021/01/07 08:30:55;;;;;;;15.57;9.19;;;;;;;-0.08;88.48;99198.22;2315760;66;24357;-73
2021/01/07 08:33:57;;;;;;;14.82;8.70;;;;;;;0.00;88.64;99201.06;2315091;69;20218;-71
2021/01/07 08:37:16;;;;;;;14.80;9.01;;;;;;;0.07;88.85;99204.69;2316929;69;20184;-71
2021/01/07 08:40:21;;;;;;;13.72;8.00;;;;;;;0.13;88.87;99202.31;2316320;69;20144;-71
2021/01/07 08:43:22;;;;;;;14.76;8.47;;;;;;;0.20;88.84;99199.19;2317376;69;20185;-71
2021/01/07 08:46:36;;;;;;;15.06;8.69;;;;;;;0.28;88.83;99205.38;2317024;66;20906;-71
2021/01/07 08:49:38;;;;;;;17.21;10.07;;;;;;;0.34;88.76;99209.81;2316652;69;20152;-71
2021/01/07 08:52:56;;;;;;;16.07;9.54;;;;;;;0.39;88.72;99210.88;2317428;68;20177;-71
2021/01/07 08:55:57;;;;;;;17.21;9.93;;;;;;;0.42;88.72;99208.41;2317030;69;20197;-71
2021/01/07 08:59:33;;;;;;;16.38;9.44;;;;;;;0.45;88.72;99211.91;2316940;69;20174;-71
2021/01/07 09:02:35;;;;;;;17.11;9.44;;;;;;;0.51;88.64;99201.03;2315377;67;20529;-72
2021/01/07 09:05:36;;;;;;;15.52;9.69;;;;;;;0.53;88.63;99205.34;2317327;69;20147;-71
2021/01/07 09:08:38;;;;;;;15.49;9.33;;;;;;;0.58;88.70;99208.94;2316560;68;20174;-72
2021/01/07 09:12:12;;;;;;;18.06;10.11;;;;;;;0.62;88.74;99204.81;2316832;69;20371;-72
2021/01/07 09:15:26;;;;;;;17.31;10.10;;;;;;;0.67;88.62;99210.06;2315567;66;20215;-72
2021/01/07 09:18:28;;;;;;;16.72;9.94;;;;;;;0.70;88.49;99207.59;2317601;69;20739;-72
2021/01/07 09:21:30;;;;;;;16.87;9.78;;;;;;;0.75;88.61;99206.06;2317070;69;20160;-72
2021/01/07 09:24:37;;;;;;;15.37;9.23;;;;;;;0.79;88.59;99206.19;2316608;69;20188;-73
2021/01/07 09:27:38;;;;;;;16.18;9.53;;;;;;;0.87;88.49;99211.53;2316088;68;20163;-72
2021/01/07 09:30:40;;;;;;;16.87;9.11;;;;;;;0.92;88.41;99209.16;2315428;66;21844;-72
2021/01/07 09:33:42;;;;;;;16.47;9.72;;;;;;;0.93;88.21;99211.75;2316780;69;20176;-72
2021/01/07 09:36:44;;;;;;;16.48;9.13;;;;;;;0.97;88.12;99205.91;2317679;69;20943;-72
2021/01/07 09:39:49;;;;;;;17.03;9.17;;;;;;;1.04;87.93;99212.94;2318249;69;20308;-72
2021/01/07 09:42:51;;;;;;;14.97;9.00;;;;;;;1.10;87.80;99208.03;2316977;69;20179;-71
2021/01/07 09:45:52;;;;;;;13.80;8.91;;;;;;;1.16;87.65;99204.75;2316131;66;21444;-72
2021/01/07 09:48:54;;;;;;;17.70;9.84;;;;;;;1.22;87.53;99194.72;2317155;69;20937;-72
2021/01/07 09:51:56;;;;;;;16.04;10.00;;;;;;;1.30;87.39;99194.94;2316341;69;20341;-72
2021/01/07 09:54:58;;;;;;;15.69;9.61;;;;;;;1.35;87.23;99201.91;2315964;69;20175;-72
2021/01/07 09:58:00;;;;;;;16.66;9.68;;;;;;;1.40;87.12;99195.25;2315547;69;20269;-72
2021/01/07 10:01:02;;;;;;;16.20;9.11;;;;;;;1.46;87.01;99192.00;2314772;66;23353;-72
2021/01/07 10:04:04;;;;;;;15.07;8.74;;;;;;;1.52;86.95;99194.72;2315776;69;20203;-74
2021/01/07 10:07:06;;;;;;;13.99;9.00;;;;;;;1.59;86.72;99191.50;2315389;69;20402;-74
2021/01/07 10:10:08;;;;;;;13.68;8.61;;;;;;;1.62;86.22;99190.75;2315632;69;20333;-74
2021/01/07 10:13:10;;;;;;;13.59;8.26;;;;;;;1.63;85.75;99192.50;2315080;69;20830;-72
2021/01/07 10:16:14;;;;;;;12.56;8.32;;;;;;;1.66;85.56;99178.06;2314541;66;20859;-72
2021/01/07 10:19:16;;;;;;;12.81;8.27;;;;;;;1.73;85.40;99174.84;2315248;69;20307;-71
2021/01/07 10:22:22;;;;;;;12.38;8.80;;;;;;;1.83;85.13;99181.09;2314918;69;20753;-71
2021/01/07 10:25:24;;;;;;;14.53;9.10;;;;;;;1.90;84.89;99177.00;2315174;69;20321;-71
2021/01/07 10:28:27;;;;;;;13.95;8.48;;;;;;;2.00;84.85;99166.19;2315503;69;20156;-72
2021/01/07 10:31:28;;;;;;;13.94;9.74;;;;;;;2.09;84.77;99166.41;2315982;66;20320;-72
2021/01/07 10:34:35;;;;;;;15.02;8.86;;;;;;;2.16;84.49;99164.88;2317338;68;20921;-72
2021/01/07 10:37:38;;;;;;;14.06;8.74;;;;;;;2.23;84.12;99159.06;2315594;69;20288;-72
2021/01/07 10:40:44;;;;;;;14.60;9.68;;;;;;;2.32;83.72;99162.72;2315277;69;20289;-72
2021/01/07 10:43:47;;;;;;;14.04;8.94;;;;;;;2.42;83.78;99159.56;2316533;69;20300;-72
2021/01/07 10:46:52;;;;;;;13.75;8.56;;;;;;;2.52;83.72;99154.66;2316548;68;25394;-72
2021/01/07 10:49:56;;;;;;;14.59;9.05;;;;;;;2.59;83.40;99156.53;2316817;69;20357;-72
2021/01/07 10:53:10;;;;;;;14.07;9.09;;;;;;;2.67;83.16;99155.00;2315849;69;20339;-72
2021/01/07 10:56:24;;;;;;;13.21;7.91;;;;;;;2.77;82.84;99153.53;2316377;69;20323;-72
2021/01/07 10:59:37;;;;;;;13.29;8.56;;;;;;;2.86;82.37;99144.31;2316302;68;20318;-72
2021/01/07 11:02:57;;;;;;;11.38;7.78;;;;;;;2.91;81.39;99150.44;2315750;66;20885;-72
2021/01/07 11:06:01;;;;;;;14.06;7.88;;;;;;;2.97;81.19;99148.00;2321397;68;20357;-71
2021/01/07 11:09:17;;;;;;;12.43;8.05;;;;;;;3.06;80.96;99133.66;2316982;69;20349;-72
2021/01/07 11:12:26;;;;;;;13.94;8.76;;;;;;;3.12;81.06;99134.66;2316655;69;20318;-72
2021/01/07 11:15:29;;;;;;;12.29;7.25;;;;;;;3.16;80.63;99130.44;2316845;67;24823;-73
2021/01/07 11:18:33;;;;;;;13.18;8.77;;;;;;;3.21;80.33;99127.13;2316393;69;20160;-72
2021/01/07 11:21:42;;;;;;;11.13;7.95;;;;;;;3.20;79.83;99127.97;2315586;69;20320;-75
2021/01/07 11:24:47;;;;;;;12.84;8.48;;;;;;;3.17;79.71;99127.91;2316475;69;20340;-75
2021/01/07 11:27:50;;;;;;;11.73;7.94;;;;;;;3.19;80.18;99123.66;2316701;68;20658;-73
2021/01/07 11:30:53;;;;;;;11.54;7.63;;;;;;;3.22;80.34;99115.16;2315908;66;45078;-72
2021/01/07 11:33:57;;;;;;;10.86;7.47;;;;;;;3.20;80.18;99114.28;2316413;69;20327;-72
2021/01/07 11:37:30;;;;;;;9.86;6.66;;;;;;;3.20;79.84;99115.13;2316190;69;20300;-72
2021/01/07 11:40:48;;;;;;;8.68;6.04;;;;;;;3.18;79.11;99108.25;2316571;69;20363;-72
2021/01/07 11:44:04;;;;;;;10.04;6.34;;;;;;;3.18;78.71;99096.28;2316929;69;20799;-73
2021/01/07 11:47:10;;;;;;;7.56;5.38;;;;;;;3.17;78.63;99101.38;2315968;68;45271;-72
2021/01/07 11:50:13;;;;;;;8.31;5.66;;;;;;;3.18;78.90;99091.16;2317169;68;20312;-73
2021/01/07 11:53:15;;;;;;;7.13;5.22;;;;;;;3.19;78.22;99103.13;2315827;69;20296;-72
2021/01/07 11:56:17;;;;;;;7.13;5.24;;;;;;;3.18;77.78;99090.28;2316184;69;20361;-72
2021/01/07 11:59:21;;;;;;;7.31;4.66;;;;;;;3.17;77.41;99093.69;2317586;69;20883;-72
2021/01/07 12:02:26;;;;;;;8.31;5.76;;;;;;;3.17;77.45;99097.13;2315827;66;24661;-73
2021/01/07 12:05:27;;;;;;;7.91;5.32;;;;;;;3.18;77.25;99090.28;2316494;69;21787;-73
2021/01/07 12:09:09;;;;;;;7.45;5.15;;;;;;;3.19;77.53;99086.88;2318082;69;20774;-73
2021/01/07 12:12:15;;;;;;;6.89;4.80;;;;;;;3.23;77.38;99087.00;2317023;69;20284;-73
2021/01/07 12:15:19;;;;;;;9.01;5.21;;;;;;;3.27;77.58;99086.22;2315138;66;21640;-73
2021/01/07 12:18:26;;;;;;;8.07;5.51;;;;;;;3.31;77.41;99084.56;2317928;69;20653;-73
2021/01/07 12:21:28;;;;;;;9.96;5.99;;;;;;;3.34;76.93;99088.06;2316583;69;20345;-73
2021/01/07 12:24:31;;;;;;;7.21;4.95;;;;;;;3.31;76.38;99089.69;2316408;69;20341;-72
2021/01/07 12:27:35;;;;;;;9.18;5.34;;;;;;;3.29;76.23;99093.94;2318394;69;20386;-72
2021/01/07 12:30:40;;;;;;;8.38;5.32;;;;;;;3.31;76.31;99089.69;2314839;66;21350;-75
2021/01/07 12:34:03;;;;;;;9.07;5.40;;;;;;;3.32;76.23;99091.44;2315883;69;20356;-72
2021/01/07 12:37:17;;;;;;;7.19;5.05;;;;;;;3.34;76.22;99080.34;2316513;69;20328;-72
2021/01/07 12:40:19;;;;;;;8.23;5.35;;;;;;;3.37;76.15;99087.25;2320906;68;20321;-73
2021/01/07 12:43:26;;;;;;;8.81;5.76;;;;;;;3.37;76.19;99082.13;2315411;69;20781;-72
2021/01/07 12:46:37;;;;;;;7.49;5.10;;;;;;;3.36;76.12;99072.69;2316255;66;21653;-72
2021/01/07 12:49:42;;;;;;;7.76;5.39;;;;;;;3.40;76.36;99077.03;2317616;69;20276;-72
2021/01/07 12:52:44;;;;;;;9.00;5.13;;;;;;;3.39;75.61;99070.19;2316353;69;20520;-72
2021/01/07 12:55:46;;;;;;;7.09;5.18;;;;;;;3.40;75.69;99069.34;2320240;68;20357;-72
2021/01/07 12:58:52;;;;;;;6.81;5.25;;;;;;;3.40;76.07;99069.34;2316093;69;20849;-72
2021/01/07 13:02:07;;;;;;;7.03;4.82;;;;;;;3.33;75.53;99065.81;2315611;66;23483;-72
2021/01/07 13:05:11;;;;;;;6.78;4.49;;;;;;;3.28;75.81;99066.56;2316597;69;20335;-74
2021/01/07 13:08:14;;;;;;;7.59;4.80;;;;;;;3.21;75.83;99064.69;2316504;69;20292;-72
2021/01/07 13:11:18;;;;;;;7.07;4.50;;;;;;;3.17;76.00;99070.59;2317722;68;20409;-72
2021/01/07 13:14:20;;;;;;;6.93;4.84;;;;;;;3.18;76.49;99069.78;2315173;69;20590;-73
2021/01/07 13:17:22;;;;;;;5.53;4.28;;;;;;;3.12;75.62;99062.81;2315519;66;24494;-72
2021/01/07 13:20:24;;;;;;;6.06;4.24;;;;;;;3.10;75.43;99066.19;2316112;68;21049;-73
2021/01/07 13:23:27;;;;;;;5.51;4.32;;;;;;;3.09;75.68;99061.91;2316621;68;20477;-72
2021/01/07 13:26:29;;;;;;;5.46;4.14;;;;;;;3.09;75.83;99061.91;2320602;68;20396;-73
2021/01/07 13:29:31;;;;;;;6.51;4.99;;;;;;;3.11;76.30;99055.97;2316255;68;20316;-73
2021/01/07 13:32:33;;;;;;;5.31;4.09;;;;;;;3.11;76.25;99068.78;2315829;66;20987;-73
2021/01/07 13:35:40;;;;;;;6.28;3.99;;;;;;;3.10;76.36;99061.94;2316492;69;20331;-73
2021/01/07 13:38:41;;;;;;;5.53;3.65;;;;;;;3.03;76.06;99063.50;2317592;68;20781;-73
2021/01/07 13:41:45;;;;;;;5.24;3.76;;;;;;;2.94;76.25;99062.44;2316363;68;20312;-73
2021/01/07 13:44:50;;;;;;;5.14;3.92;;;;;;;2.93;76.48;99064.16;2315528;69;20328;-73
2021/01/07 13:47:52;;;;;;;6.72;4.24;;;;;;;2.93;76.69;99055.59;2315577;66;20288;-72
2021/01/07 13:50:55;;;;;;;6.89;4.40;;;;;;;2.96;76.93;99076.16;2315921;69;20669;-73
2021/01/07 13:53:58;;;;;;;6.68;4.03;;;;;;;2.97;77.24;99068.50;2316211;69;20328;-73
2021/01/07 13:57:02;;;;;;;5.99;4.41;;;;;;;3.03;77.72;99068.63;2315903;69;20296;-73
2021/01/07 14:00:09;;;;;;;;;;;;;;;3.07;77.47;99069.56;2315909;69;20417;-72
2021/01/07 14:03:11;;;;;;;5.40;3.74;;;;;;;3.06;76.75;99070.41;2316057;66;22383;-73
2021/01/07 14:06:16;;;;;;;4.24;3.74;;;;;;;3.06;77.19;99062.72;2315920;69;21135;-73
2021/01/07 14:09:24;;;;;;;5.41;3.67;;;;;;;3.04;76.99;99067.78;2317763;69;20303;-74
2021/01/07 14:12:31;;;;;;;5.60;3.91;;;;;;;3.04;77.09;99070.34;2317443;69;20453;-73
2021/01/07 14:15:32;;;;;;;5.28;4.25;;;;;;;3.00;76.97;99066.00;2314448;66;39082;-72
2021/01/07 14:18:35;;;;;;;6.50;4.00;;;;;;;2.99;77.01;99060.84;2315194;69;20694;-73
2021/01/07 14:21:39;;;;;;;4.04;3.29;;;;;;;2.91;75.99;99062.41;2316502;69;20359;-73
2021/01/07 14:24:41;;;;;;;5.11;3.96;;;;;;;2.88;75.92;99070.03;2317144;69;20296;-73